sensor_id;sensor_type;location;lat;lon;timestamp;temperature;humidity
30999;DHT22;20549;50.042;8.968;2023-06-26T00:00:22;22.40;56.40
30999;DHT22;20549;50.042;8.968;2023-06-26T00:02:48;22.40;56.60
30999;DHT22;20549;50.042;8.968;2023-06-26T00:05:14;22.30;56.70
30999;DHT22;20549;50.042;8.968;2023-06-26T00:07:41;22.30;56.80
30999;DHT22;20549;50.042;8.968;2023-06-26T00:10:07;22.30;56.90
30999;DHT22;20549;50.042;8.968;2023-06-26T00:12:34;22.20;56.90
30999;DHT22;20549;50.042;8.968;2023-06-26T00:15:01;22.20;57.00
30999;DHT22;20549;50.042;8.968;2023-06-26T00:17:27;22.20;57.10
30999;DHT22;20549;50.042;8.968;2023-06-26T00:19:54;22.20;57.20
30999;DHT22;20549;50.042;8.968;2023-06-26T00:22:21;22.10;57.30
30999;DHT22;20549;50.042;8.968;2023-06-26T00:24:47;22.10;57.30
30999;DHT22;20549;50.042;8.968;2023-06-26T00:27:14;22.00;57.50
30999;DHT22;20549;50.042;8.968;2023-06-26T00:29:40;22.00;57.60
30999;DHT22;20549;50.042;8.968;2023-06-26T00:32:07;22.00;57.70
30999;DHT22;20549;50.042;8.968;2023-06-26T00:34:33;21.90;57.90
30999;DHT22;20549;50.042;8.968;2023-06-26T00:37:00;21.90;58.00
30999;DHT22;20549;50.042;8.968;2023-06-26T00:39:26;21.90;58.20
30999;DHT22;20549;50.042;8.968;2023-06-26T00:41:53;21.80;58.20
30999;DHT22;20549;50.042;8.968;2023-06-26T00:44:20;21.80;58.40
30999;DHT22;20549;50.042;8.968;2023-06-26T00:46:46;21.70;58.40
30999;DHT22;20549;50.042;8.968;2023-06-26T00:49:13;21.70;58.60
30999;DHT22;20549;50.042;8.968;2023-06-26T00:51:39;21.70;58.60
30999;DHT22;20549;50.042;8.968;2023-06-26T00:54:06;21.70;58.80
30999;DHT22;20549;50.042;8.968;2023-06-26T00:56:33;21.60;58.80
30999;DHT22;20549;50.042;8.968;2023-06-26T00:58:59;21.60;59.00
30999;DHT22;20549;50.042;8.968;2023-06-26T01:01:26;21.50;59.00
30999;DHT22;20549;50.042;8.968;2023-06-26T01:03:52;21.60;59.20
30999;DHT22;20549;50.042;8.968;2023-06-26T01:06:22;21.50;59.20
30999;DHT22;20549;50.042;8.968;2023-06-26T01:08:46;21.50;59.80
30999;DHT22;20549;50.042;8.968;2023-06-26T01:11:12;21.50;59.40
30999;DHT22;20549;50.042;8.968;2023-06-26T01:13:39;21.40;59.50
30999;DHT22;20549;50.042;8.968;2023-06-26T01:16:05;21.40;59.50
30999;DHT22;20549;50.042;8.968;2023-06-26T01:18:32;21.40;59.60
30999;DHT22;20549;50.042;8.968;2023-06-26T01:20:58;21.30;59.60
30999;DHT22;20549;50.042;8.968;2023-06-26T01:23:38;21.30;59.80
30999;DHT22;20549;50.042;8.968;2023-06-26T01:26:22;21.30;59.90
30999;DHT22;20549;50.042;8.968;2023-06-26T01:28:51;21.20;60.00
30999;DHT22;20549;50.042;8.968;2023-06-26T01:31:14;21.20;60.00
30999;DHT22;20549;50.042;8.968;2023-06-26T01:33:41;21.20;60.20
30999;DHT22;20549;50.042;8.968;2023-06-26T01:36:08;21.10;60.30
30999;DHT22;20549;50.042;8.968;2023-06-26T01:38:34;21.10;60.40
30999;DHT22;20549;50.042;8.968;2023-06-26T01:41:01;21.10;60.60
30999;DHT22;20549;50.042;8.968;2023-06-26T01:43:54;21.00;60.70
30999;DHT22;20549;50.042;8.968;2023-06-26T01:46:23;21.00;60.90
30999;DHT22;20549;50.042;8.968;2023-06-26T01:49:06;21.00;60.80
30999;DHT22;20549;50.042;8.968;2023-06-26T01:51:35;21.00;60.90
30999;DHT22;20549;50.042;8.968;2023-06-26T01:53:59;21.00;61.10
30999;DHT22;20549;50.042;8.968;2023-06-26T01:56:25;20.90;61.20
30999;DHT22;20549;50.042;8.968;2023-06-26T01:58:52;20.90;61.20
30999;DHT22;20549;50.042;8.968;2023-06-26T02:01:19;20.90;61.40
30999;DHT22;20549;50.042;8.968;2023-06-26T02:03:45;20.80;61.60
30999;DHT22;20549;50.042;8.968;2023-06-26T02:06:12;20.80;61.80
30999;DHT22;20549;50.042;8.968;2023-06-26T02:08:38;20.70;61.90
30999;DHT22;20549;50.042;8.968;2023-06-26T02:11:05;20.70;62.10
30999;DHT22;20549;50.042;8.968;2023-06-26T02:13:32;20.70;62.20
30999;DHT22;20549;50.042;8.968;2023-06-26T02:15:58;20.60;62.20
30999;DHT22;20549;50.042;8.968;2023-06-26T02:18:25;20.60;62.40
30999;DHT22;20549;50.042;8.968;2023-06-26T02:20:51;20.60;62.60
30999;DHT22;20549;50.042;8.968;2023-06-26T02:23:18;20.50;62.70
30999;DHT22;20549;50.042;8.968;2023-06-26T02:25:45;20.40;62.80
30999;DHT22;20549;50.042;8.968;2023-06-26T02:28:11;20.40;63.00
30999;DHT22;20549;50.042;8.968;2023-06-26T02:30:38;20.40;63.20
30999;DHT22;20549;50.042;8.968;2023-06-26T02:33:04;20.30;63.30
30999;DHT22;20549;50.042;8.968;2023-06-26T02:35:31;20.30;63.40
30999;DHT22;20549;50.042;8.968;2023-06-26T02:37:57;20.20;63.50
30999;DHT22;20549;50.042;8.968;2023-06-26T02:40:24;20.20;63.80
30999;DHT22;20549;50.042;8.968;2023-06-26T02:42:51;20.20;64.00
30999;DHT22;20549;50.042;8.968;2023-06-26T02:45:17;20.10;64.20
30999;DHT22;20549;50.042;8.968;2023-06-26T02:47:44;20.10;64.40
30999;DHT22;20549;50.042;8.968;2023-06-26T02:50:10;20.10;64.50
30999;DHT22;20549;50.042;8.968;2023-06-26T02:52:37;20.00;64.70
30999;DHT22;20549;50.042;8.968;2023-06-26T02:55:04;20.00;65.00
30999;DHT22;20549;50.042;8.968;2023-06-26T02:57:30;19.90;65.00
30999;DHT22;20549;50.042;8.968;2023-06-26T02:59:57;19.90;65.20
30999;DHT22;20549;50.042;8.968;2023-06-26T03:02:23;19.90;65.30
30999;DHT22;20549;50.042;8.968;2023-06-26T03:04:50;19.80;65.40
30999;DHT22;20549;50.042;8.968;2023-06-26T03:07:17;19.80;65.50
30999;DHT22;20549;50.042;8.968;2023-06-26T03:09:43;19.80;66.40
30999;DHT22;20549;50.042;8.968;2023-06-26T03:12:10;19.70;65.70
30999;DHT22;20549;50.042;8.968;2023-06-26T03:14:36;19.70;65.90
30999;DHT22;20549;50.042;8.968;2023-06-26T03:17:03;19.70;66.00
30999;DHT22;20549;50.042;8.968;2023-06-26T03:19:29;19.70;66.30
30999;DHT22;20549;50.042;8.968;2023-06-26T03:21:56;19.60;66.50
30999;DHT22;20549;50.042;8.968;2023-06-26T03:24:23;19.60;66.60
30999;DHT22;20549;50.042;8.968;2023-06-26T03:26:49;19.60;66.70
30999;DHT22;20549;50.042;8.968;2023-06-26T03:29:16;19.60;66.70
30999;DHT22;20549;50.042;8.968;2023-06-26T03:31:42;19.60;67.40
30999;DHT22;20549;50.042;8.968;2023-06-26T03:34:09;19.50;67.00
30999;DHT22;20549;50.042;8.968;2023-06-26T03:36:36;19.50;67.20
30999;DHT22;20549;50.042;8.968;2023-06-26T03:39:02;19.50;67.30
30999;DHT22;20549;50.042;8.968;2023-06-26T03:41:29;19.50;67.40
30999;DHT22;20549;50.042;8.968;2023-06-26T03:43:55;19.50;67.40
30999;DHT22;20549;50.042;8.968;2023-06-26T03:46:22;19.50;67.60
30999;DHT22;20549;50.042;8.968;2023-06-26T03:48:49;19.50;67.80
30999;DHT22;20549;50.042;8.968;2023-06-26T03:51:15;19.50;68.00
30999;DHT22;20549;50.042;8.968;2023-06-26T03:53:42;19.50;68.90
30999;DHT22;20549;50.042;8.968;2023-06-26T03:56:08;19.50;68.30
30999;DHT22;20549;50.042;8.968;2023-06-26T03:58:35;19.50;68.30
30999;DHT22;20549;50.042;8.968;2023-06-26T04:01:01;19.50;68.30
30999;DHT22;20549;50.042;8.968;2023-06-26T04:03:28;19.50;68.60
30999;DHT22;20549;50.042;8.968;2023-06-26T04:05:55;19.60;68.70
30999;DHT22;20549;50.042;8.968;2023-06-26T04:08:23;19.60;68.00
30999;DHT22;20549;50.042;8.968;2023-06-26T04:10:48;19.60;68.80
30999;DHT22;20549;50.042;8.968;2023-06-26T04:13:14;19.70;68.90
30999;DHT22;20549;50.042;8.968;2023-06-26T04:15:41;19.70;69.00
30999;DHT22;20549;50.042;8.968;2023-06-26T04:18:08;19.70;69.10
30999;DHT22;20549;50.042;8.968;2023-06-26T04:20:38;19.80;69.10
30999;DHT22;20549;50.042;8.968;2023-06-26T04:23:01;19.90;69.20
30999;DHT22;20549;50.042;8.968;2023-06-26T04:25:27;19.90;69.20
30999;DHT22;20549;50.042;8.968;2023-06-26T04:27:54;20.00;69.20
30999;DHT22;20549;50.042;8.968;2023-06-26T04:30:21;20.00;69.20
30999;DHT22;20549;50.042;8.968;2023-06-26T04:32:47;20.10;69.20
30999;DHT22;20549;50.042;8.968;2023-06-26T04:35:14;20.20;69.20
30999;DHT22;20549;50.042;8.968;2023-06-26T04:37:40;20.30;69.20
30999;DHT22;20549;50.042;8.968;2023-06-26T04:40:07;20.40;69.20
30999;DHT22;20549;50.042;8.968;2023-06-26T04:42:34;20.40;69.10
30999;DHT22;20549;50.042;8.968;2023-06-26T04:45:00;20.50;69.20
30999;DHT22;20549;50.042;8.968;2023-06-26T04:47:27;20.60;69.10
30999;DHT22;20549;50.042;8.968;2023-06-26T04:49:53;20.70;69.20
30999;DHT22;20549;50.042;8.968;2023-06-26T04:52:20;20.80;69.10
30999;DHT22;20549;50.042;8.968;2023-06-26T04:54:47;20.90;69.10
30999;DHT22;20549;50.042;8.968;2023-06-26T04:57:13;21.10;69.10
30999;DHT22;20549;50.042;8.968;2023-06-26T04:59:40;21.30;69.60
30999;DHT22;20549;50.042;8.968;2023-06-26T05:02:06;21.60;70.30
30999;DHT22;20549;50.042;8.968;2023-06-26T05:04:33;22.00;71.00
30999;DHT22;20549;50.042;8.968;2023-06-26T05:07:00;22.50;71.60
30999;DHT22;20549;50.042;8.968;2023-06-26T05:09:26;23.10;71.70
30999;DHT22;20549;50.042;8.968;2023-06-26T05:11:53;23.80;71.40
30999;DHT22;20549;50.042;8.968;2023-06-26T05:14:19;24.60;70.70
30999;DHT22;20549;50.042;8.968;2023-06-26T05:16:46;25.40;69.60
30999;DHT22;20549;50.042;8.968;2023-06-26T05:19:13;26.20;68.40
30999;DHT22;20549;50.042;8.968;2023-06-26T05:21:39;27.10;67.00
30999;DHT22;20549;50.042;8.968;2023-06-26T05:24:06;27.90;65.20
30999;DHT22;20549;50.042;8.968;2023-06-26T05:26:32;28.70;63.60
30999;DHT22;20549;50.042;8.968;2023-06-26T05:28:59;29.40;62.10
30999;DHT22;20549;50.042;8.968;2023-06-26T05:31:26;30.10;60.40
30999;DHT22;20549;50.042;8.968;2023-06-26T05:33:52;30.70;59.20
30999;DHT22;20549;50.042;8.968;2023-06-26T05:36:19;31.30;58.30
30999;DHT22;20549;50.042;8.968;2023-06-26T05:38:45;31.90;57.40
30999;DHT22;20549;50.042;8.968;2023-06-26T05:41:12;32.50;56.60
30999;DHT22;20549;50.042;8.968;2023-06-26T05:43:38;33.10;55.50
30999;DHT22;20549;50.042;8.968;2023-06-26T05:46:05;33.60;54.60
30999;DHT22;20549;50.042;8.968;2023-06-26T05:48:32;34.10;53.60
30999;DHT22;20549;50.042;8.968;2023-06-26T05:50:58;34.60;52.80
30999;DHT22;20549;50.042;8.968;2023-06-26T05:53:25;35.10;52.00
30999;DHT22;20549;50.042;8.968;2023-06-26T05:55:51;35.60;51.40
30999;DHT22;20549;50.042;8.968;2023-06-26T05:58:18;36.10;51.00
30999;DHT22;20549;50.042;8.968;2023-06-26T06:00:45;36.60;50.30
30999;DHT22;20549;50.042;8.968;2023-06-26T06:03:11;37.10;49.60
30999;DHT22;20549;50.042;8.968;2023-06-26T06:05:38;37.60;48.80
30999;DHT22;20549;50.042;8.968;2023-06-26T06:08:04;38.20;48.00
30999;DHT22;20549;50.042;8.968;2023-06-26T06:10:31;38.70;47.00
30999;DHT22;20549;50.042;8.968;2023-06-26T06:12:58;39.10;45.80
30999;DHT22;20549;50.042;8.968;2023-06-26T06:15:24;39.50;45.10
30999;DHT22;20549;50.042;8.968;2023-06-26T06:17:51;39.90;44.50
30999;DHT22;20549;50.042;8.968;2023-06-26T06:20:17;40.20;43.70
30999;DHT22;20549;50.042;8.968;2023-06-26T06:22:44;40.50;43.20
30999;DHT22;20549;50.042;8.968;2023-06-26T06:25:10;40.70;42.40
30999;DHT22;20549;50.042;8.968;2023-06-26T06:27:37;41.00;42.00
30999;DHT22;20549;50.042;8.968;2023-06-26T06:30:04;41.40;41.60
30999;DHT22;20549;50.042;8.968;2023-06-26T06:32:30;41.70;41.10
30999;DHT22;20549;50.042;8.968;2023-06-26T06:34:57;42.00;40.40
30999;DHT22;20549;50.042;8.968;2023-06-26T06:37:23;42.40;40.10
30999;DHT22;20549;50.042;8.968;2023-06-26T06:39:50;42.70;39.10
30999;DHT22;20549;50.042;8.968;2023-06-26T06:42:17;43.10;38.60
30999;DHT22;20549;50.042;8.968;2023-06-26T06:44:43;43.40;37.90
30999;DHT22;20549;50.042;8.968;2023-06-26T06:47:10;43.80;37.30
30999;DHT22;20549;50.042;8.968;2023-06-26T06:49:36;44.00;36.60
30999;DHT22;20549;50.042;8.968;2023-06-26T06:52:03;44.30;36.20
30999;DHT22;20549;50.042;8.968;2023-06-26T06:54:30;44.40;35.70
30999;DHT22;20549;50.042;8.968;2023-06-26T06:56:56;44.60;35.30
30999;DHT22;20549;50.042;8.968;2023-06-26T06:59:23;44.80;34.90
30999;DHT22;20549;50.042;8.968;2023-06-26T07:01:49;45.00;34.50
30999;DHT22;20549;50.042;8.968;2023-06-26T07:04:16;45.20;34.00
30999;DHT22;20549;50.042;8.968;2023-06-26T07:06:42;45.50;33.60
30999;DHT22;20549;50.042;8.968;2023-06-26T07:09:09;45.60;33.20
30999;DHT22;20549;50.042;8.968;2023-06-26T07:11:36;45.90;33.00
30999;DHT22;20549;50.042;8.968;2023-06-26T07:14:02;46.10;32.60
30999;DHT22;20549;50.042;8.968;2023-06-26T07:16:29;46.40;32.20
30999;DHT22;20549;50.042;8.968;2023-06-26T07:18:55;46.70;31.90
30999;DHT22;20549;50.042;8.968;2023-06-26T07:21:22;46.90;31.60
30999;DHT22;20549;50.042;8.968;2023-06-26T07:23:49;47.30;31.40
30999;DHT22;20549;50.042;8.968;2023-06-26T07:26:15;47.60;31.00
30999;DHT22;20549;50.042;8.968;2023-06-26T07:28:42;47.90;30.60
30999;DHT22;20549;50.042;8.968;2023-06-26T07:31:08;48.20;30.10
30999;DHT22;20549;50.042;8.968;2023-06-26T07:33:35;48.50;29.80
30999;DHT22;20549;50.042;8.968;2023-06-26T07:36:02;48.70;29.70
30999;DHT22;20549;50.042;8.968;2023-06-26T07:38:28;48.90;29.20
30999;DHT22;20549;50.042;8.968;2023-06-26T07:40:55;49.20;28.90
30999;DHT22;20549;50.042;8.968;2023-06-26T07:43:21;49.50;28.70
30999;DHT22;20549;50.042;8.968;2023-06-26T07:45:48;49.70;28.50
30999;DHT22;20549;50.042;8.968;2023-06-26T07:48:14;49.90;28.20
30999;DHT22;20549;50.042;8.968;2023-06-26T07:50:41;50.00;27.70
30999;DHT22;20549;50.042;8.968;2023-06-26T07:53:08;50.00;27.50
30999;DHT22;20549;50.042;8.968;2023-06-26T07:55:34;50.00;27.20
30999;DHT22;20549;50.042;8.968;2023-06-26T07:58:01;50.10;27.20
30999;DHT22;20549;50.042;8.968;2023-06-26T08:00:27;50.20;27.00
30999;DHT22;20549;50.042;8.968;2023-06-26T08:02:54;50.20;27.10
30999;DHT22;20549;50.042;8.968;2023-06-26T08:05:21;50.20;26.80
30999;DHT22;20549;50.042;8.968;2023-06-26T08:07:47;50.20;26.80
30999;DHT22;20549;50.042;8.968;2023-06-26T08:10:14;50.20;26.70
30999;DHT22;20549;50.042;8.968;2023-06-26T08:12:40;50.40;26.60
30999;DHT22;20549;50.042;8.968;2023-06-26T08:15:07;50.50;26.50
30999;DHT22;20549;50.042;8.968;2023-06-26T08:17:34;50.60;26.30
30999;DHT22;20549;50.042;8.968;2023-06-26T08:20:00;50.70;26.10
30999;DHT22;20549;50.042;8.968;2023-06-26T08:22:27;50.90;26.10
30999;DHT22;20549;50.042;8.968;2023-06-26T08:24:53;51.00;25.90
30999;DHT22;20549;50.042;8.968;2023-06-26T08:27:20;51.20;25.60
30999;DHT22;20549;50.042;8.968;2023-06-26T08:29:47;51.20;25.50
30999;DHT22;20549;50.042;8.968;2023-06-26T08:32:13;51.10;25.20
30999;DHT22;20549;50.042;8.968;2023-06-26T08:34:40;51.10;25.30
30999;DHT22;20549;50.042;8.968;2023-06-26T08:37:06;51.10;25.70
30999;DHT22;20549;50.042;8.968;2023-06-26T08:39:33;51.10;25.20
30999;DHT22;20549;50.042;8.968;2023-06-26T08:42:00;51.00;25.10
30999;DHT22;20549;50.042;8.968;2023-06-26T08:44:26;51.10;25.00
30999;DHT22;20549;50.042;8.968;2023-06-26T08:46:53;51.20;25.00
30999;DHT22;20549;50.042;8.968;2023-06-26T08:49:28;51.20;24.80
30999;DHT22;20549;50.042;8.968;2023-06-26T08:51:56;51.30;24.60
30999;DHT22;20549;50.042;8.968;2023-06-26T08:54:18;51.40;24.40
30999;DHT22;20549;50.042;8.968;2023-06-26T08:56:44;51.40;24.30
30999;DHT22;20549;50.042;8.968;2023-06-26T08:59:11;51.30;24.10
30999;DHT22;20549;50.042;8.968;2023-06-26T09:01:37;51.20;24.10
30999;DHT22;20549;50.042;8.968;2023-06-26T09:04:04;51.00;23.90
30999;DHT22;20549;50.042;8.968;2023-06-26T09:06:30;50.60;23.80
30999;DHT22;20549;50.042;8.968;2023-06-26T09:08:57;50.20;24.00
30999;DHT22;20549;50.042;8.968;2023-06-26T09:11:24;49.80;23.90
30999;DHT22;20549;50.042;8.968;2023-06-26T09:13:50;49.20;23.80
30999;DHT22;20549;50.042;8.968;2023-06-26T09:16:17;48.60;23.90
30999;DHT22;20549;50.042;8.968;2023-06-26T09:18:46;48.10;24.40
30999;DHT22;20549;50.042;8.968;2023-06-26T09:21:10;47.60;24.80
30999;DHT22;20549;50.042;8.968;2023-06-26T09:23:37;47.40;25.20
30999;DHT22;20549;50.042;8.968;2023-06-26T09:26:04;47.40;25.40
30999;DHT22;20549;50.042;8.968;2023-06-26T09:28:30;47.40;25.30
30999;DHT22;20549;50.042;8.968;2023-06-26T09:31:00;47.60;25.30
30999;DHT22;20549;50.042;8.968;2023-06-26T09:33:23;47.80;25.40
30999;DHT22;20549;50.042;8.968;2023-06-26T09:35:50;48.00;25.50
30999;DHT22;20549;50.042;8.968;2023-06-26T09:38:16;48.20;25.30
30999;DHT22;20549;50.042;8.968;2023-06-26T09:40:43;48.40;25.30
30999;DHT22;20549;50.042;8.968;2023-06-26T09:43:12;48.70;25.10
30999;DHT22;20549;50.042;8.968;2023-06-26T09:45:36;48.80;24.90
30999;DHT22;20549;50.042;8.968;2023-06-26T09:48:06;48.80;24.70
30999;DHT22;20549;50.042;8.968;2023-06-26T09:50:32;48.80;24.70
30999;DHT22;20549;50.042;8.968;2023-06-26T09:52:59;48.70;24.70
30999;DHT22;20549;50.042;8.968;2023-06-26T09:55:25;48.50;24.50
30999;DHT22;20549;50.042;8.968;2023-06-26T09:57:52;48.40;24.60
30999;DHT22;20549;50.042;8.968;2023-06-26T10:00:18;48.20;24.70
30999;DHT22;20549;50.042;8.968;2023-06-26T10:02:45;47.90;25.40
30999;DHT22;20549;50.042;8.968;2023-06-26T10:05:12;47.70;24.90
30999;DHT22;20549;50.042;8.968;2023-06-26T10:07:38;47.50;24.90
30999;DHT22;20549;50.042;8.968;2023-06-26T10:10:05;47.30;25.10
30999;DHT22;20549;50.042;8.968;2023-06-26T10:12:31;47.10;25.10
30999;DHT22;20549;50.042;8.968;2023-06-26T10:14:58;46.80;25.20
30999;DHT22;20549;50.042;8.968;2023-06-26T10:17:25;46.50;25.20
30999;DHT22;20549;50.042;8.968;2023-06-26T10:19:51;46.30;25.20
30999;DHT22;20549;50.042;8.968;2023-06-26T10:22:18;46.00;25.10
30999;DHT22;20549;50.042;8.968;2023-06-26T10:24:45;45.70;25.30
30999;DHT22;20549;50.042;8.968;2023-06-26T10:27:17;45.20;25.50
30999;DHT22;20549;50.042;8.968;2023-06-26T10:29:44;44.90;25.80
30999;DHT22;20549;50.042;8.968;2023-06-26T10:32:10;44.50;25.90
30999;DHT22;20549;50.042;8.968;2023-06-26T10:34:36;44.20;26.10
30999;DHT22;20549;50.042;8.968;2023-06-26T10:37:03;43.90;26.30
30999;DHT22;20549;50.042;8.968;2023-06-26T10:39:48;43.60;26.40
30999;DHT22;20549;50.042;8.968;2023-06-26T10:42:14;43.20;26.50
30999;DHT22;20549;50.042;8.968;2023-06-26T10:44:41;42.80;26.80
30999;DHT22;20549;50.042;8.968;2023-06-26T10:47:07;42.50;26.90
30999;DHT22;20549;50.042;8.968;2023-06-26T10:49:34;42.20;27.10
30999;DHT22;20549;50.042;8.968;2023-06-26T10:52:01;42.00;27.40
30999;DHT22;20549;50.042;8.968;2023-06-26T10:54:30;41.70;27.50
30999;DHT22;20549;50.042;8.968;2023-06-26T10:56:56;41.30;27.60
30999;DHT22;20549;50.042;8.968;2023-06-26T10:59:26;41.00;27.80
30999;DHT22;20549;50.042;8.968;2023-06-26T11:02:02;40.60;28.10
30999;DHT22;20549;50.042;8.968;2023-06-26T11:04:37;40.30;28.00
30999;DHT22;20549;50.042;8.968;2023-06-26T11:07:18;39.90;28.60
30999;DHT22;20549;50.042;8.968;2023-06-26T11:09:52;39.60;28.80
30999;DHT22;20549;50.042;8.968;2023-06-26T11:12:06;39.30;29.10
30999;DHT22;20549;50.042;8.968;2023-06-26T11:14:32;39.00;29.20
30999;DHT22;20549;50.042;8.968;2023-06-26T11:17:01;38.80;29.70
30999;DHT22;20549;50.042;8.968;2023-06-26T11:19:28;38.60;29.90
30999;DHT22;20549;50.042;8.968;2023-06-26T11:21:52;38.50;30.10
30999;DHT22;20549;50.042;8.968;2023-06-26T11:24:19;38.40;30.20
30999;DHT22;20549;50.042;8.968;2023-06-26T11:26:45;38.30;30.40
30999;DHT22;20549;50.042;8.968;2023-06-26T11:29:12;38.10;30.60
30999;DHT22;20549;50.042;8.968;2023-06-26T11:31:39;38.00;30.80
30999;DHT22;20549;50.042;8.968;2023-06-26T11:34:06;38.00;31.10
30999;DHT22;20549;50.042;8.968;2023-06-26T11:36:32;37.90;31.30
30999;DHT22;20549;50.042;8.968;2023-06-26T11:38:59;37.90;31.20
30999;DHT22;20549;50.042;8.968;2023-06-26T11:41:29;37.90;31.30
30999;DHT22;20549;50.042;8.968;2023-06-26T11:43:51;37.80;31.30
30999;DHT22;20549;50.042;8.968;2023-06-26T11:46:20;37.70;31.50
30999;DHT22;20549;50.042;8.968;2023-06-26T11:48:44;37.60;31.50
30999;DHT22;20549;50.042;8.968;2023-06-26T11:51:14;37.60;31.40
30999;DHT22;20549;50.042;8.968;2023-06-26T11:53:41;37.50;31.30
30999;DHT22;20549;50.042;8.968;2023-06-26T11:56:08;37.30;31.40
30999;DHT22;20549;50.042;8.968;2023-06-26T11:58:34;37.20;31.50
30999;DHT22;20549;50.042;8.968;2023-06-26T12:01:00;37.00;31.60
30999;DHT22;20549;50.042;8.968;2023-06-26T12:03:27;36.90;31.90
30999;DHT22;20549;50.042;8.968;2023-06-26T12:05:53;36.80;32.00
30999;DHT22;20549;50.042;8.968;2023-06-26T12:08:20;36.70;32.30
30999;DHT22;20549;50.042;8.968;2023-06-26T12:10:47;36.60;32.30
30999;DHT22;20549;50.042;8.968;2023-06-26T12:13:13;36.50;32.40
30999;DHT22;20549;50.042;8.968;2023-06-26T12:15:40;36.50;32.60
30999;DHT22;20549;50.042;8.968;2023-06-26T12:18:09;36.50;33.00
30999;DHT22;20549;50.042;8.968;2023-06-26T12:20:39;36.50;33.00
30999;DHT22;20549;50.042;8.968;2023-06-26T12:23:03;36.50;33.00
30999;DHT22;20549;50.042;8.968;2023-06-26T12:25:32;36.50;33.00
30999;DHT22;20549;50.042;8.968;2023-06-26T12:27:56;36.60;33.00
30999;DHT22;20549;50.042;8.968;2023-06-26T12:30:22;36.60;33.10
30999;DHT22;20549;50.042;8.968;2023-06-26T12:32:49;36.60;33.10
30999;DHT22;20549;50.042;8.968;2023-06-26T12:35:16;36.70;33.30
30999;DHT22;20549;50.042;8.968;2023-06-26T12:37:43;36.70;33.20
30999;DHT22;20549;50.042;8.968;2023-06-26T12:40:18;36.70;33.00
30999;DHT22;20549;50.042;8.968;2023-06-26T12:42:45;36.70;33.00
30999;DHT22;20549;50.042;8.968;2023-06-26T12:45:11;36.70;33.20
30999;DHT22;20549;50.042;8.968;2023-06-26T12:47:37;36.60;33.20
30999;DHT22;20549;50.042;8.968;2023-06-26T12:50:07;36.50;33.30
30999;DHT22;20549;50.042;8.968;2023-06-26T12:52:34;36.40;33.30
30999;DHT22;20549;50.042;8.968;2023-06-26T12:55:00;36.40;33.60
30999;DHT22;20549;50.042;8.968;2023-06-26T12:57:27;36.30;33.70
30999;DHT22;20549;50.042;8.968;2023-06-26T12:59:53;36.30;33.80
30999;DHT22;20549;50.042;8.968;2023-06-26T13:02:20;36.30;33.70
30999;DHT22;20549;50.042;8.968;2023-06-26T13:04:46;36.40;33.80
30999;DHT22;20549;50.042;8.968;2023-06-26T13:07:13;36.40;33.80
30999;DHT22;20549;50.042;8.968;2023-06-26T13:09:40;36.40;34.00
30999;DHT22;20549;50.042;8.968;2023-06-26T13:12:06;36.50;33.80
30999;DHT22;20549;50.042;8.968;2023-06-26T13:14:33;36.40;34.00
30999;DHT22;20549;50.042;8.968;2023-06-26T13:17:02;36.40;34.50
30999;DHT22;20549;50.042;8.968;2023-06-26T13:19:29;36.20;34.30
30999;DHT22;20549;50.042;8.968;2023-06-26T13:21:55;36.20;34.70
30999;DHT22;20549;50.042;8.968;2023-06-26T13:24:22;36.00;34.70
30999;DHT22;20549;50.042;8.968;2023-06-26T13:26:48;35.90;35.00
30999;DHT22;20549;50.042;8.968;2023-06-26T13:29:15;35.80;35.20
30999;DHT22;20549;50.042;8.968;2023-06-26T13:31:41;35.60;35.40
30999;DHT22;20549;50.042;8.968;2023-06-26T13:34:08;35.40;35.50
30999;DHT22;20549;50.042;8.968;2023-06-26T13:36:35;35.20;35.60
30999;DHT22;20549;50.042;8.968;2023-06-26T13:39:02;35.00;35.80
30999;DHT22;20549;50.042;8.968;2023-06-26T13:41:28;34.80;36.40
30999;DHT22;20549;50.042;8.968;2023-06-26T13:43:54;34.60;36.40
30999;DHT22;20549;50.042;8.968;2023-06-26T13:46:21;34.40;36.40
30999;DHT22;20549;50.042;8.968;2023-06-26T13:48:48;34.30;36.80
30999;DHT22;20549;50.042;8.968;2023-06-26T13:51:14;34.20;37.00
30999;DHT22;20549;50.042;8.968;2023-06-26T13:53:41;34.00;37.20
30999;DHT22;20549;50.042;8.968;2023-06-26T13:56:07;34.00;37.50
30999;DHT22;20549;50.042;8.968;2023-06-26T13:58:35;33.80;37.40
30999;DHT22;20549;50.042;8.968;2023-06-26T14:01:01;33.70;37.80
30999;DHT22;20549;50.042;8.968;2023-06-26T14:03:27;33.70;37.90
30999;DHT22;20549;50.042;8.968;2023-06-26T14:05:54;33.60;38.00
30999;DHT22;20549;50.042;8.968;2023-06-26T14:08:20;33.60;38.10
30999;DHT22;20549;50.042;8.968;2023-06-26T14:10:47;33.50;38.10
30999;DHT22;20549;50.042;8.968;2023-06-26T14:13:13;33.50;38.20
30999;DHT22;20549;50.042;8.968;2023-06-26T14:15:40;33.50;38.20
30999;DHT22;20549;50.042;8.968;2023-06-26T14:18:07;33.50;38.40
30999;DHT22;20549;50.042;8.968;2023-06-26T14:20:33;33.50;38.60
30999;DHT22;20549;50.042;8.968;2023-06-26T14:23:00;33.50;38.50
30999;DHT22;20549;50.042;8.968;2023-06-26T14:25:26;33.50;38.70
30999;DHT22;20549;50.042;8.968;2023-06-26T14:27:54;33.50;38.70
30999;DHT22;20549;50.042;8.968;2023-06-26T14:30:20;33.50;38.80
30999;DHT22;20549;50.042;8.968;2023-06-26T14:32:46;33.50;38.70
30999;DHT22;20549;50.042;8.968;2023-06-26T14:35:13;33.50;38.60
30999;DHT22;20549;50.042;8.968;2023-06-26T14:37:39;33.50;38.40
30999;DHT22;20549;50.042;8.968;2023-06-26T14:40:06;33.40;38.30
30999;DHT22;20549;50.042;8.968;2023-06-26T14:42:33;33.40;38.60
30999;DHT22;20549;50.042;8.968;2023-06-26T14:44:59;33.40;38.50
30999;DHT22;20549;50.042;8.968;2023-06-26T14:47:26;33.40;38.40
30999;DHT22;20549;50.042;8.968;2023-06-26T14:49:52;33.30;38.40
30999;DHT22;20549;50.042;8.968;2023-06-26T14:52:19;33.30;38.50
30999;DHT22;20549;50.042;8.968;2023-06-26T14:54:45;33.30;38.60
30999;DHT22;20549;50.042;8.968;2023-06-26T14:57:12;33.10;38.40
30999;DHT22;20549;50.042;8.968;2023-06-26T14:59:39;33.10;38.20
30999;DHT22;20549;50.042;8.968;2023-06-26T15:02:05;33.00;38.10
30999;DHT22;20549;50.042;8.968;2023-06-26T15:04:32;32.90;38.10
30999;DHT22;20549;50.042;8.968;2023-06-26T15:06:58;32.90;38.20
30999;DHT22;20549;50.042;8.968;2023-06-26T15:09:25;32.80;38.20
30999;DHT22;20549;50.042;8.968;2023-06-26T15:11:52;32.80;38.10
30999;DHT22;20549;50.042;8.968;2023-06-26T15:14:18;32.80;38.00
30999;DHT22;20549;50.042;8.968;2023-06-26T15:16:45;32.70;37.80
30999;DHT22;20549;50.042;8.968;2023-06-26T15:19:11;32.60;37.60
30999;DHT22;20549;50.042;8.968;2023-06-26T15:21:38;32.50;37.60
30999;DHT22;20549;50.042;8.968;2023-06-26T15:24:05;32.40;37.70
30999;DHT22;20549;50.042;8.968;2023-06-26T15:26:31;32.30;37.40